Time;durP1;ratioP1;P1;durP2;ratioP2;P2;SDS_P1;SDS_P2;PMS_P1;PMS_P2;Temp;Humidity;BMP_temperature;BMP_pressure;BME280_temperature;BME280_humidity;BME280_pressure;Samples;Min_cycle;Max_cycle;Signal;HPM_P1;HPM_P2
2022/03/25 00:00:25;;;;;;;132.27;72.22;;;4.50;99.90;;;;;;4954243;28;226465;-74
2022/03/25 00:02:52;;;;;;;118.97;66.55;;;4.50;99.90;;;;;;4983679;28;20042;-74
2022/03/25 00:05:19;;;;;;;129.90;72.65;;;4.50;99.90;;;;;;4959478;28;108801;-75
2022/03/25 00:07:45;;;;;;;123.47;67.40;;;4.40;99.90;;;;;;5007822;28;20149;-74
2022/03/25 00:10:11;;;;;;;111.35;65.18;;;4.40;99.90;;;;;;4969772;28;152141;-75
2022/03/25 00:12:39;;;;;;;123.15;67.57;;;4.40;99.90;;;;;;5002802;28;20064;-75
2022/03/25 00:15:05;;;;;;;128.70;69.53;;;4.40;99.90;;;;;;4991056;28;129492;-74
2022/03/25 00:17:31;;;;;;;137.60;69.97;;;4.30;99.90;;;;;;5011502;28;20073;-74
2022/03/25 00:19:57;;;;;;;140.13;71.90;;;4.30;99.90;;;;;;4966612;28;68495;-75
2022/03/25 00:22:23;;;;;;;134.38;73.45;;;4.30;99.90;;;;;;5011008;28;20407;-75
2022/03/25 00:24:49;;;;;;;140.05;72.10;;;4.30;99.90;;;;;;5010371;28;20041;-75
2022/03/25 00:27:16;;;;;;;138.25;71.85;;;4.30;99.90;;;;;;5015696;28;20372;-74
2022/03/25 00:29:42;;;;;;;134.95;70.40;;;4.20;99.90;;;;;;4969065;28;126692;-74
2022/03/25 00:32:08;;;;;;;135.70;73.13;;;4.20;99.90;;;;;;5027368;28;20042;-74
2022/03/25 00:34:35;;;;;;;138.50;75.22;;;4.20;99.90;;;;;;4964259;28;177222;-74
2022/03/25 00:37:01;;;;;;;134.10;71.65;;;4.10;99.90;;;;;;4994969;28;20046;-74
2022/03/25 00:39:28;;;;;;;136.23;70.07;;;4.10;99.90;;;;;;4959129;28;150465;-74
2022/03/25 00:41:54;;;;;;;135.30;71.63;;;4.10;99.90;;;;;;4993690;28;20049;-74
2022/03/25 00:44:20;;;;;;;151.55;74.90;;;4.10;99.90;;;;;;4976684;28;113420;-74
2022/03/25 00:46:46;;;;;;;147.77;75.00;;;4.10;99.90;;;;;;5021907;28;20058;-74
2022/03/25 00:49:12;;;;;;;150.07;74.13;;;4.10;99.90;;;;;;4989817;28;249249;-74
2022/03/25 00:51:38;;;;;;;146.52;75.95;;;4.10;99.90;;;;;;4984184;28;20045;-74
2022/03/25 00:54:05;;;;;;;154.45;78.18;;;4.10;99.90;;;;;;4987782;28;250892;-75
2022/03/25 00:56:31;;;;;;;171.50;79.55;;;4.10;99.90;;;;;;4969019;28;20440;-75
2022/03/25 00:58:57;;;;;;;149.00;77.07;;;4.00;99.90;;;;;;4986434;28;256926;-74
2022/03/25 01:01:23;;;;;;;146.05;73.18;;;4.00;99.90;;;;;;4972329;28;20516;-74
2022/03/25 01:03:50;;;;;;;160.13;75.47;;;4.00;99.90;;;;;;4974278;28;269706;-71
2022/03/25 01:06:18;;;;;;;144.85;72.93;;;4.00;99.90;;;;;;5006292;28;20360;-73
2022/03/25 01:08:44;;;;;;;139.93;71.60;;;3.90;99.90;;;;;;5017162;28;20060;-73
2022/03/25 01:11:11;;;;;;;150.15;70.07;;;3.90;99.90;;;;;;4989542;28;262824;-73
2022/03/25 01:13:37;;;;;;;123.68;64.30;;;3.90;99.90;;;;;;5002640;28;20166;-73
2022/03/25 01:16:05;;;;;;;170.98;65.45;;;3.80;99.90;;;;;;4963250;28;259177;-73
2022/03/25 01:18:31;;;;;;;190.80;67.68;;;3.80;99.90;;;;;;5001716;28;20419;-73
2022/03/25 01:20:59;;;;;;;275.38;64.57;;;3.80;99.90;;;;;;4954456;28;164038;-73
2022/03/25 01:23:25;;;;;;;682.92;73.38;;;3.80;99.90;;;;;;5002697;28;20046;-74
2022/03/25 01:25:52;;;;;;;447.05;65.90;;;3.70;99.90;;;;;;4963129;28;251145;-73
2022/03/25 01:28:18;;;;;;;350.73;61.88;;;3.70;99.90;;;;;;4996848;28;20470;-74
2022/03/25 01:30:45;;;;;;;635.38;66.78;;;3.70;99.90;;;;;;4965848;28;265314;-74
2022/03/25 01:33:11;;;;;;;407.63;60.95;;;3.60;99.90;;;;;;5000183;28;20050;-75
2022/03/25 01:35:37;;;;;;;524.92;62.10;;;3.70;99.90;;;;;;4982194;28;261655;-75
2022/03/25 01:38:04;;;;;;;480.75;62.83;;;3.60;99.90;;;;;;5002196;28;20081;-74
2022/03/25 01:40:31;;;;;;;748.90;68.88;;;3.60;99.90;;;;;;4960492;28;99021;-74
2022/03/25 01:42:57;;;;;;;645.42;66.47;;;3.50;99.90;;;;;;4993776;28;20062;-75
2022/03/25 01:45:36;;;;;;;595.80;66.38;;;3.50;99.90;;;;;;4966734;28;100748;-74
2022/03/25 01:48:09;;;;;;;630.10;64.47;;;3.50;99.90;;;;;;4976822;28;20400;-75
2022/03/25 01:50:36;;;;;;;568.67;63.33;;;3.40;99.90;;;;;;4965055;28;34371;-74
2022/03/25 01:53:04;;;;;;;676.30;64.97;;;3.40;99.90;;;;;;4996981;28;20041;-74
2022/03/25 01:55:37;;;;;;;722.72;65.18;;;3.40;99.90;;;;;;4963740;28;224509;-74
2022/03/25 01:58:05;;;;;;;829.20;69.72;;;3.40;99.90;;;;;;4994581;28;20061;-73
2022/03/25 02:00:32;;;;;;;303.10;56.17;;;3.30;99.90;;;;;;4972566;28;156381;-74
2022/03/25 02:02:58;;;;;;;426.80;59.78;;;3.30;99.90;;;;;;5009699;28;20061;-74
2022/03/25 02:05:25;;;;;;;580.03;61.30;;;3.30;99.90;;;;;;4949853;28;260794;-74
2022/03/25 02:07:51;;;;;;;383.95;55.90;;;3.30;99.90;;;;;;4994954;28;20049;-74
2022/03/25 02:10:18;;;;;;;527.00;56.45;;;3.30;99.90;;;;;;4967250;28;20049;-73
2022/03/25 02:12:44;;;;;;;729.92;61.47;;;3.30;99.90;;;;;;5008192;28;20057;-73
2022/03/25 02:15:10;;;;;;;369.15;53.88;;;3.30;99.90;;;;;;4972229;28;265915;-74
2022/03/25 02:17:37;;;;;;;639.50;55.67;;;3.30;99.90;;;;;;5003769;28;20058;-73
2022/03/25 02:20:08;;;;;;;359.33;50.42;;;3.20;99.90;;;;;;4959826;28;35263;-74
2022/03/25 02:22:40;;;;;;;407.70;53.03;;;3.20;99.90;;;;;;4991482;28;20062;-74
2022/03/25 02:25:11;;;;;;;440.52;51.72;;;3.20;99.90;;;;;;5007110;28;246600;-75
2022/03/25 02:27:38;;;;;;;660.83;56.42;;;3.20;99.90;;;;;;5033073;28;20085;-74
2022/03/25 02:30:06;;;;;;;251.23;48.00;;;3.20;99.90;;;;;;4962518;28;194524;-74
2022/03/25 02:32:33;;;;;;;288.27;47.72;;;3.20;99.90;;;;;;5000125;28;20058;-74
2022/03/25 02:34:59;;;;;;;359.83;47.63;;;3.20;99.90;;;;;;4978477;28;239017;-74
2022/03/25 02:37:26;;;;;;;450.92;49.28;;;3.20;99.90;;;;;;4962992;28;20411;-73
2022/03/25 02:39:53;;;;;;;242.70;44.60;;;3.20;99.90;;;;;;4971263;28;245682;-73
2022/03/25 02:42:20;;;;;;;590.42;52.88;;;3.20;99.90;;;;;;5006140;28;20050;-73
2022/03/25 02:44:48;;;;;;;399.17;46.55;;;3.20;99.90;;;;;;4967885;28;83508;-74
2022/03/25 02:47:15;;;;;;;490.88;48.47;;;3.10;99.90;;;;;;5006132;28;20519;-73
2022/03/25 02:49:42;;;;;;;255.25;43.53;;;3.10;99.90;;;;;;4966567;28;47927;-73
2022/03/25 02:52:08;;;;;;;213.13;42.38;;;3.10;99.90;;;;;;4999971;28;20068;-74
2022/03/25 02:54:34;;;;;;;440.40;48.72;;;3.10;99.90;;;;;;4963553;28;275534;-73
2022/03/25 02:57:00;;;;;;;202.63;42.75;;;3.10;99.90;;;;;;4986978;28;20053;-74
2022/03/25 02:59:26;;;;;;;282.70;44.92;;;3.10;99.90;;;;;;4964720;28;33647;-73
2022/03/25 03:01:52;;;;;;;397.40;48.28;;;3.00;99.90;;;;;;4994846;28;20053;-74
2022/03/25 03:04:18;;;;;;;521.33;50.80;;;3.00;99.90;;;;;;4961045;28;159200;-73
2022/03/25 03:06:44;;;;;;;129.75;41.10;;;2.90;99.90;;;;;;4978408;28;20045;-73
2022/03/25 03:09:11;;;;;;;123.63;40.83;;;2.90;99.90;;;;;;4996586;28;20048;-73
2022/03/25 03:11:37;;;;;;;137.65;39.97;;;2.90;99.90;;;;;;5002889;28;20049;-75
2022/03/25 03:14:04;;;;;;;141.80;39.95;;;2.90;99.90;;;;;;4991289;28;254969;-74
2022/03/25 03:16:31;;;;;;;149.98;40.10;;;2.80;99.90;;;;;;4987549;28;20148;-74
2022/03/25 03:18:57;;;;;;;86.07;36.88;;;2.80;99.90;;;;;;4990344;28;255516;-74
2022/03/25 03:21:24;;;;;;;83.70;38.95;;;2.70;99.90;;;;;;4979238;28;20509;-74
2022/03/25 03:23:54;;;;;;;51.22;36.78;;;2.70;99.90;;;;;;4986792;28;273043;-74
2022/03/25 03:26:22;;;;;;;70.05;38.05;;;2.70;99.90;;;;;;4989530;28;20477;-74
2022/03/25 03:28:48;;;;;;;130.70;40.45;;;2.70;99.90;;;;;;4987673;28;264230;-74
2022/03/25 03:31:14;;;;;;;61.25;39.38;;;2.60;99.90;;;;;;4986854;28;20468;-74
2022/03/25 03:33:40;;;;;;;58.65;37.33;;;2.60;99.90;;;;;;5008084;28;20041;-74
2022/03/25 03:36:07;;;;;;;58.50;39.38;;;2.60;99.90;;;;;;4945727;28;113047;-74
2022/03/25 03:38:34;;;;;;;53.17;37.50;;;2.50;99.90;;;;;;5016766;28;20053;-74
2022/03/25 03:41:00;;;;;;;53.85;37.13;;;2.50;99.90;;;;;;4952897;28;184031;-74
2022/03/25 03:43:26;;;;;;;54.90;37.80;;;2.40;99.90;;;;;;5003149;28;20479;-74
2022/03/25 03:45:53;;;;;;;53.92;37.65;;;2.40;99.90;;;;;;4965636;28;260968;-74
2022/03/25 03:48:19;;;;;;;57.83;38.72;;;2.40;99.90;;;;;;5028458;28;20045;-74
2022/03/25 03:50:45;;;;;;;57.88;38.83;;;2.30;99.90;;;;;;4967084;28;148985;-75
2022/03/25 03:53:12;;;;;;;53.13;38.15;;;2.30;99.90;;;;;;4974309;28;20685;-75
2022/03/25 03:55:38;;;;;;;53.83;36.30;;;2.30;99.90;;;;;;4950127;28;58355;-76
2022/03/25 03:58:05;;;;;;;57.13;38.17;;;2.20;99.90;;;;;;4998272;28;20054;-74
2022/03/25 04:00:32;;;;;;;54.30;35.58;;;2.20;99.90;;;;;;4977628;28;68835;-75
2022/03/25 04:02:58;;;;;;;55.20;37.30;;;2.10;99.90;;;;;;5004284;28;20065;-75
2022/03/25 04:05:24;;;;;;;65.38;40.25;;;2.10;99.90;;;;;;4954379;28;230369;-75
2022/03/25 04:07:50;;;;;;;60.70;40.95;;;2.10;99.90;;;;;;5003788;28;20065;-75
2022/03/25 04:10:18;;;;;;;59.67;40.70;;;2.00;99.90;;;;;;4973652;28;147194;-74
2022/03/25 04:12:44;;;;;;;70.93;42.33;;;2.00;99.90;;;;;;5006146;28;20062;-74
2022/03/25 04:15:12;;;;;;;83.78;42.78;;;1.90;99.90;;;;;;4976403;28;272670;-74
2022/03/25 04:17:44;;;;;;;96.03;42.03;;;2.00;99.90;;;;;;5014838;28;20057;-75
2022/03/25 04:20:13;;;;;;;172.55;42.85;;;1.90;99.90;;;;;;4961109;28;250105;-74
2022/03/25 04:22:40;;;;;;;136.43;41.72;;;1.90;99.90;;;;;;4997519;28;20446;-75
2022/03/25 04:25:07;;;;;;;135.32;39.33;;;1.90;99.90;;;;;;4979447;28;273421;-74
2022/03/25 04:27:34;;;;;;;136.15;43.30;;;1.90;99.90;;;;;;5005920;28;20388;-74
2022/03/25 04:30:00;;;;;;;106.35;42.20;;;1.80;99.90;;;;;;4964613;28;255588;-75
2022/03/25 04:32:28;;;;;;;136.75;47.72;;;1.80;99.90;;;;;;4989282;28;20053;-74
2022/03/25 04:34:54;;;;;;;108.32;47.30;;;1.80;99.90;;;;;;4979754;28;70607;-74
2022/03/25 04:37:20;;;;;;;71.60;42.55;;;1.80;99.90;;;;;;5001845;28;20061;-74
2022/03/25 04:39:46;;;;;;;69.13;42.47;;;1.80;99.90;;;;;;4962998;28;209264;-75
2022/03/25 04:42:13;;;;;;;68.50;42.13;;;1.80;99.90;;;;;;4974128;28;20046;-74
2022/03/25 04:44:39;;;;;;;87.57;46.03;;;1.80;99.90;;;;;;4942154;28;175532;-73
2022/03/25 04:47:05;;;;;;;78.15;44.63;;;1.80;99.90;;;;;;4994740;28;20532;-73
2022/03/25 04:49:31;;;;;;;81.43;46.47;;;1.80;99.90;;;;;;4947971;28;118815;-74
2022/03/25 04:51:57;;;;;;;85.57;47.30;;;1.80;99.90;;;;;;4992592;28;20058;-74
2022/03/25 04:54:23;;;;;;;89.13;46.20;;;1.80;99.90;;;;;;4945931;28;162701;-73
2022/03/25 04:56:50;;;;;;;84.68;46.67;;;1.80;99.90;;;;;;4994091;28;20050;-74
2022/03/25 04:59:16;;;;;;;78.97;46.15;;;1.70;99.90;;;;;;4981085;28;143212;-74
2022/03/25 05:01:42;;;;;;;80.97;46.50;;;1.80;99.90;;;;;;4948231;28;20054;-74
2022/03/25 05:04:08;;;;;;;79.15;45.92;;;1.70;99.90;;;;;;4954787;28;255738;-75
2022/03/25 05:06:35;;;;;;;86.78;47.95;;;1.70;99.90;;;;;;4935465;28;20050;-75
2022/03/25 05:09:01;;;;;;;83.72;46.97;;;1.70;99.90;;;;;;4970854;28;251798;-75
2022/03/25 05:11:28;;;;;;;93.85;48.45;;;1.70;99.90;;;;;;4976059;28;20042;-74
2022/03/25 05:13:55;;;;;;;93.35;51.38;;;1.70;99.90;;;;;;4970839;28;233541;-75
2022/03/25 05:16:22;;;;;;;103.18;52.65;;;1.70;99.90;;;;;;4972406;28;20041;-75
2022/03/25 05:18:48;;;;;;;91.75;50.22;;;1.70;99.90;;;;;;4969988;28;280515;-73
2022/03/25 05:21:14;;;;;;;101.78;53.65;;;1.70;99.90;;;;;;4979813;28;20046;-74
2022/03/25 05:23:40;;;;;;;94.72;50.97;;;1.80;99.90;;;;;;4985889;28;20499;-73
2022/03/25 05:26:06;;;;;;;103.00;52.78;;;1.80;99.90;;;;;;4953016;28;259577;-74
2022/03/25 05:28:33;;;;;;;100.57;51.78;;;1.80;99.90;;;;;;5015832;28;20058;-74
2022/03/25 05:30:59;;;;;;;109.25;54.17;;;1.80;99.90;;;;;;4980215;28;75533;-75
2022/03/25 05:33:25;;;;;;;101.22;51.28;;;1.80;99.90;;;;;;5017238;28;20054;-73
2022/03/25 05:35:51;;;;;;;89.78;49.97;;;1.80;99.90;;;;;;4968386;28;265872;-74
2022/03/25 05:38:17;;;;;;;105.78;52.63;;;1.80;99.90;;;;;;5017730;28;20054;-74
2022/03/25 05:40:43;;;;;;;92.40;48.80;;;1.80;99.90;;;;;;4958235;28;261984;-74
2022/03/25 05:43:09;;;;;;;99.95;50.85;;;1.80;99.90;;;;;;4999537;28;20073;-75
2022/03/25 05:45:36;;;;;;;92.63;48.70;;;1.90;99.90;;;;;;4979178;28;192806;-74
2022/03/25 05:48:03;;;;;;;83.68;46.85;;;1.90;99.90;;;;;;5001458;28;20054;-74
2022/03/25 05:50:30;;;;;;;99.95;51.75;;;1.90;99.90;;;;;;4964082;28;273647;-75
2022/03/25 05:52:56;;;;;;;93.30;50.35;;;1.90;99.90;;;;;;4990930;28;20480;-73
2022/03/25 05:55:22;;;;;;;75.95;45.33;;;2.00;99.90;;;;;;4963607;28;52804;-75
2022/03/25 05:57:49;;;;;;;81.15;45.25;;;2.00;99.90;;;;;;4995847;28;20049;-72
2022/03/25 06:00:16;;;;;;;76.55;43.90;;;1.90;99.90;;;;;;4955848;28;307050;-74
2022/03/25 06:02:46;;;;;;;93.18;48.50;;;1.90;99.90;;;;;;4960053;28;20051;-74
2022/03/25 06:05:14;;;;;;;92.50;49.95;;;2.00;99.90;;;;;;4943876;28;262071;-73
2022/03/25 06:07:45;;;;;;;111.95;53.65;;;2.00;99.90;;;;;;5000703;28;20061;-73
2022/03/25 06:10:13;;;;;;;105.65;52.50;;;2.00;99.90;;;;;;4953038;28;261017;-73
2022/03/25 06:12:40;;;;;;;114.47;53.13;;;2.10;99.90;;;;;;4981414;28;20050;-74
2022/03/25 06:15:08;;;;;;;100.40;51.35;;;2.20;99.90;;;;;;4933130;28;183775;-74
2022/03/25 06:17:45;;;;;;;110.40;53.53;;;2.20;99.90;;;;;;4997152;28;20504;-74
2022/03/25 06:20:13;;;;;;;105.72;53.80;;;2.30;99.90;;;;;;4941823;28;220891;-73
2022/03/25 06:22:40;;;;;;;91.40;49.28;;;2.30;99.90;;;;;;4979835;28;20039;-74
2022/03/25 06:25:08;;;;;;;98.05;52.45;;;2.30;99.90;;;;;;4943357;28;145193;-74
2022/03/25 06:27:35;;;;;;;99.75;51.55;;;2.40;99.90;;;;;;4957186;28;20152;-74
2022/03/25 06:30:02;;;;;;;101.07;52.13;;;2.50;99.90;;;;;;4948485;28;261912;-74
2022/03/25 06:32:28;;;;;;;101.68;52.15;;;2.50;99.90;;;;;;4977554;28;20419;-74
2022/03/25 06:34:54;;;;;;;95.00;48.63;;;2.60;99.90;;;;;;4953005;28;35067;-74
2022/03/25 06:37:21;;;;;;;96.18;51.33;;;2.60;99.90;;;;;;4985297;28;20050;-74
2022/03/25 06:39:48;;;;;;;110.53;54.35;;;2.70;99.90;;;;;;4939882;28;254312;-75
2022/03/25 06:42:14;;;;;;;105.90;53.67;;;2.80;99.90;;;;;;4980887;28;20547;-74
2022/03/25 06:44:40;;;;;;;112.95;54.05;;;2.90;99.90;;;;;;4958622;28;24488;-74
2022/03/25 06:47:06;;;;;;;93.88;49.10;;;2.90;99.90;;;;;;4993614;28;20054;-74
2022/03/25 06:49:32;;;;;;;97.25;51.83;;;3.00;99.90;;;;;;4927895;28;176194;-75
2022/03/25 06:51:59;;;;;;;116.90;56.72;;;3.10;99.90;;;;;;4960816;28;20057;-75
2022/03/25 06:54:25;;;;;;;104.10;56.00;;;3.60;99.90;;;;;;4949391;28;230668;-74
2022/03/25 06:56:51;;;;;;;106.88;54.03;;;4.20;99.90;;;;;;4990878;28;20406;-74
2022/03/25 06:59:20;;;;;;;87.90;51.28;;;4.70;99.90;;;;;;4983385;28;142117;-74
2022/03/25 07:01:46;;;;;;;84.60;51.53;;;4.90;99.90;;;;;;5001738;28;20061;-74
2022/03/25 07:04:13;;;;;;;82.80;48.55;;;4.90;99.90;;;;;;4973925;28;252197;-69
2022/03/25 07:06:41;;;;;;;76.05;49.70;;;4.70;99.90;;;;;;4971390;28;20415;-74
2022/03/25 07:09:09;;;;;;;75.72;48.35;;;4.60;99.90;;;;;;4989167;28;270550;-76
2022/03/25 07:11:35;;;;;;;67.97;44.85;;;4.50;99.90;;;;;;4956340;28;20038;-74
2022/03/25 07:14:02;;;;;;;73.32;47.10;;;4.50;99.90;;;;;;4975841;28;248395;-73
2022/03/25 07:16:28;;;;;;;73.13;47.05;;;4.50;99.90;;;;;;4957765;28;20308;-73
2022/03/25 07:18:55;;;;;;;76.30;47.55;;;4.50;99.90;;;;;;4989269;28;261364;-73
2022/03/25 07:21:22;;;;;;;76.18;47.17;;;4.60;99.90;;;;;;4975027;28;20038;-74
2022/03/25 07:23:48;;;;;;;82.93;50.35;;;4.70;99.90;;;;;;5016876;28;263994;-75
2022/03/25 07:26:14;;;;;;;88.72;51.35;;;4.80;99.90;;;;;;5008637;28;20045;-75
2022/03/25 07:28:40;;;;;;;88.32;49.25;;;5.20;99.90;;;;;;5007151;28;20054;-75
2022/03/25 07:31:06;;;;;;;87.80;51.22;;;5.70;99.90;;;;;;4965141;28;190301;-74
2022/03/25 07:33:33;;;;;;;77.07;45.83;;;6.20;99.90;;;;;;5003221;28;20531;-75
2022/03/25 07:36:00;;;;;;;68.35;44.90;;;6.40;99.90;;;;;;4984721;28;105353;-75
2022/03/25 07:38:28;;;;;;;67.95;44.60;;;6.30;99.90;;;;;;5002569;28;20046;-74
2022/03/25 07:40:55;;;;;;;67.68;45.35;;;6.80;99.90;;;;;;4971083;28;273598;-74
2022/03/25 07:43:23;;;;;;;60.75;43.13;;;7.30;99.90;;;;;;5000428;28;20054;-74
2022/03/25 07:45:49;;;;;;;60.90;41.30;;;7.80;99.90;;;;;;4965525;28;122922;-75
2022/03/25 07:48:15;;;;;;;55.50;38.88;;;8.40;99.90;;;;;;4998567;28;20050;-74
2022/03/25 07:50:41;;;;;;;52.63;37.75;;;8.90;99.90;;;;;;4965178;28;143635;-76
2022/03/25 07:53:09;;;;;;;51.38;36.75;;;9.20;99.90;;;;;;4999078;28;20126;-74
2022/03/25 07:55:35;;;;;;;45.97;35.40;;;9.40;99.90;;;;;;4975611;28;255985;-74
2022/03/25 07:58:01;;;;;;;52.45;35.47;;;9.90;99.90;;;;;;5012383;28;20046;-74
2022/03/25 08:00:27;;;;;;;44.47;32.75;;;10.10;99.90;;;;;;4965756;28;232332;-75
2022/03/25 08:02:53;;;;;;;46.30;32.40;;;10.30;99.90;;;;;;4994913;28;20052;-74
2022/03/25 08:05:21;;;;;;;45.45;30.95;;;10.60;99.90;;;;;;4959451;28;142534;-74
2022/03/25 08:07:54;;;;;;;43.33;29.75;;;10.90;99.90;;;;;;5008594;28;20057;-74
2022/03/25 08:10:25;;;;;;;41.10;29.98;;;11.20;99.90;;;;;;4984007;28;32859;-75
2022/03/25 08:12:53;;;;;;;38.92;29.48;;;11.40;99.90;;;;;;4983468;28;20433;-75
2022/03/25 08:15:20;;;;;;;40.70;28.65;;;11.60;99.90;;;;;;4943639;28;70614;-76
2022/03/25 08:17:50;;;;;;;37.70;28.73;;;11.90;99.90;;;;;;5005300;28;20495;-75
2022/03/25 08:20:24;;;;;;;40.83;28.88;;;12.20;99.90;;;;;;4983557;28;170023;-76
2022/03/25 08:22:51;;;;;;;34.75;25.13;;;12.60;99.90;;;;;;5005796;28;20056;-75
2022/03/25 08:28:03;;;;;;;38.15;25.45;;;13.20;99.90;;;;;;5000894;28;20057;-74
2022/03/25 08:30:31;;;;;;;35.53;24.90;;;13.50;99.90;;;;;;4968566;28;213179;-74
2022/03/25 08:32:58;;;;;;;37.95;24.45;;;13.70;99.90;;;;;;4998672;28;20061;-74
2022/03/25 08:35:25;;;;;;;32.42;22.48;;;14.00;99.30;;;;;;4975021;28;257876;-74
2022/03/25 08:37:53;;;;;;;33.05;23.10;;;14.30;98.70;;;;;;4997126;28;20054;-74
2022/03/25 08:40:21;;;;;;;35.15;25.13;;;14.40;97.30;;;;;;4974505;28;25263;-74
2022/03/25 08:42:47;;;;;;;32.42;23.85;;;14.50;97.40;;;;;;5009720;28;20046;-74
2022/03/25 08:45:15;;;;;;;30.75;23.10;;;14.60;95.40;;;;;;4971908;28;210014;-74
2022/03/25 08:47:42;;;;;;;32.30;23.60;;;14.50;94.90;;;;;;5006310;28;20431;-74
2022/03/25 08:50:12;;;;;;;38.10;23.02;;;14.60;94.80;;;;;;4969621;28;83051;-75
2022/03/25 08:52:43;;;;;;;30.98;22.42;;;14.70;90.80;;;;;;5006262;28;20130;-74
2022/03/25 08:55:09;;;;;;;29.17;22.67;;;14.90;91.40;;;;;;4974362;28;260337;-75
2022/03/25 08:57:37;;;;;;;34.63;22.75;;;15.10;88.00;;;;;;5010295;28;20151;-74
2022/03/25 09:00:06;;;;;;;29.25;20.98;;;14.90;89.10;;;;;;4960780;28;109252;-74
2022/03/25 09:02:32;;;;;;;28.02;20.05;;;15.10;87.30;;;;;;5008991;28;20053;-74
2022/03/25 09:04:58;;;;;;;30.08;21.50;;;15.10;85.90;;;;;;4937500;28;215788;-74
2022/03/25 09:07:24;;;;;;;31.75;21.40;;;15.00;80.40;;;;;;5018917;28;20436;-74
2022/03/25 09:09:50;;;;;;;30.40;20.77;;;15.30;84.70;;;;;;4962031;28;168111;-74
2022/03/25 09:12:16;;;;;;;29.45;21.20;;;15.60;83.80;;;;;;4998224;28;20523;-74
2022/03/25 09:14:42;;;;;;;32.80;19.63;;;16.00;79.90;;;;;;4968636;28;259844;-75
2022/03/25 09:17:09;;;;;;;27.05;18.67;;;16.30;78.00;;;;;;4999283;28;20057;-76
2022/03/25 09:19:35;;;;;;;33.03;19.27;;;16.50;75.80;;;;;;4962803;28;275531;-75
2022/03/25 09:22:02;;;;;;;29.08;19.55;;;16.70;73.90;;;;;;5005349;28;20065;-75
2022/03/25 09:24:28;;;;;;;33.08;19.23;;;16.90;69.00;;;;;;4968262;28;107501;-76
2022/03/25 09:26:54;;;;;;;31.70;19.10;;;17.20;68.50;;;;;;4990225;28;20057;-76
2022/03/25 09:29:21;;;;;;;32.03;20.10;;;17.70;64.60;;;;;;4983802;28;113603;-75
2022/03/25 09:31:47;;;;;;;32.88;20.95;;;17.80;64.60;;;;;;5002724;28;20038;-76
2022/03/25 09:36:58;;;;;;;30.58;21.38;;;18.20;58.00;;;;;;4985295;28;20042;-76
2022/03/25 09:39:24;;;;;;;30.08;21.80;;;17.80;56.40;;;;;;4972360;28;20045;-75
2022/03/25 09:41:50;;;;;;;31.33;22.73;;;18.00;57.10;;;;;;5011302;28;20057;-76
2022/03/25 09:44:17;;;;;;;30.75;22.73;;;17.80;53.30;;;;;;4990886;28;263887;-75
2022/03/25 09:46:43;;;;;;;32.78;22.20;;;17.70;53.30;;;;;;4972111;28;20046;-76
2022/03/25 09:49:11;;;;;;;28.65;20.73;;;18.20;55.90;;;;;;4983279;28;267604;-75
2022/03/25 09:51:38;;;;;;;34.15;21.13;;;18.40;54.30;;;;;;4988115;28;20521;-75
2022/03/25 09:54:08;;;;;;;28.73;20.87;;;18.70;51.90;;;;;;4991052;28;269080;-76
2022/03/25 09:56:34;;;;;;;28.67;19.60;;;18.70;48.80;;;;;;4985309;28;20041;-75
2022/03/25 09:59:02;;;;;;;28.88;21.02;;;18.90;53.20;;;;;;4988809;28;272171;-75
2022/03/25 10:01:29;;;;;;;29.65;18.70;;;19.40;51.10;;;;;;4987877;28;20101;-75
2022/03/25 10:03:55;;;;;;;30.27;20.60;;;19.50;51.70;;;;;;4976414;28;257902;-74
2022/03/25 10:06:21;;;;;;;29.42;19.17;;;19.90;50.90;;;;;;4988968;28;20044;-75
2022/03/25 10:09:02;;;;;;;33.47;19.27;;;20.10;50.60;;;;;;4991312;28;248493;-74
2022/03/25 10:11:32;;;;;;;26.50;18.55;;;19.90;47.60;;;;;;4988005;28;20149;-74
2022/03/25 10:14:19;;;;;;;29.40;18.40;;;20.20;49.40;;;;;;4989379;28;270118;-74
2022/03/25 10:16:46;;;;;;;24.60;18.85;;;20.50;46.20;;;;;;4956353;28;20041;-75
2022/03/25 10:19:21;;;;;;;26.83;18.20;;;20.50;48.30;;;;;;5001844;28;272006;-76
2022/03/25 10:21:57;;;;;;;26.98;18.42;;;20.70;45.80;;;;;;4988311;28;20038;-75
2022/03/25 10:24:35;;;;;;;26.08;17.98;;;20.60;45.50;;;;;;4970707;28;198100;-74
2022/03/25 10:27:06;;;;;;;28.98;19.42;;;20.70;45.00;;;;;;5002434;28;20058;-75
2022/03/25 10:29:34;;;;;;;24.20;16.98;;;20.70;45.30;;;;;;4971692;28;189863;-74
2022/03/25 10:32:04;;;;;;;25.23;16.40;;;21.00;45.60;;;;;;5011799;28;20064;-75
2022/03/25 10:34:30;;;;;;;24.77;16.67;;;21.00;43.30;;;;;;4971511;28;266302;-74
2022/03/25 10:37:02;;;;;;;28.73;17.20;;;21.00;44.80;;;;;;4999774;28;20052;-75
2022/03/25 10:39:29;;;;;;;26.35;16.92;;;21.30;43.30;;;;;;4974845;28;259327;-75
2022/03/25 10:42:01;;;;;;;25.27;16.75;;;21.40;42.00;;;;;;5019428;28;20530;-75
2022/03/25 10:44:38;;;;;;;24.38;16.45;;;21.50;41.60;;;;;;4971791;28;28964;-75
2022/03/25 10:47:16;;;;;;;26.27;17.05;;;21.70;42.80;;;;;;4997143;28;20058;-74
2022/03/25 10:49:46;;;;;;;22.00;16.00;;;22.00;41.40;;;;;;4970538;28;92527;-75
2022/03/25 10:52:23;;;;;;;24.98;15.65;;;22.30;41.10;;;;;;5013903;28;20049;-75
2022/03/25 10:54:50;;;;;;;24.65;16.02;;;22.30;40.00;;;;;;4976157;28;117204;-75
2022/03/25 10:57:17;;;;;;;28.45;16.48;;;22.40;40.90;;;;;;5024837;28;20091;-75
2022/03/25 10:59:57;;;;;;;27.80;17.70;;;22.70;39.40;;;;;;4974827;28;80257;-75
2022/03/25 11:02:24;;;;;;;25.95;18.10;;;22.60;39.10;;;;;;5018866;28;20077;-75
2022/03/25 11:04:51;;;;;;;23.08;17.02;;;22.70;40.10;;;;;;4966853;28;164844;-75
2022/03/25 11:07:22;;;;;;;25.92;17.90;;;22.80;40.40;;;;;;5029267;28;20948;-74
2022/03/25 11:09:50;;;;;;;26.35;17.40;;;23.20;40.00;;;;;;4972278;28;77964;-75
2022/03/25 11:12:17;;;;;;;26.10;16.17;;;23.40;39.20;;;;;;4998479;28;20046;-74
2022/03/25 11:14:43;;;;;;;23.98;17.08;;;23.20;38.30;;;;;;4973653;28;97560;-74
2022/03/25 11:17:10;;;;;;;24.35;16.65;;;22.80;38.10;;;;;;5032550;28;20058;-73
2022/03/25 11:19:37;;;;;;;23.38;16.20;;;23.00;38.30;;;;;;4974756;28;281094;-74
2022/03/25 11:22:05;;;;;;;26.02;15.65;;;22.70;38.10;;;;;;5029985;28;20069;-74
2022/03/25 11:24:38;;;;;;;24.92;17.45;;;22.50;38.50;;;;;;4968396;28;143887;-75
2022/03/25 11:27:18;;;;;;;23.52;15.25;;;23.00;39.00;;;;;;5028811;28;20054;-74
2022/03/25 11:29:46;;;;;;;24.07;15.70;;;23.50;37.50;;;;;;4970108;28;270401;-74
2022/03/25 11:32:14;;;;;;;26.30;16.63;;;23.00;37.60;;;;;;5007462;28;20149;-73
2022/03/25 11:34:42;;;;;;;25.77;18.00;;;23.20;38.10;;;;;;4975742;28;20874;-74
2022/03/25 11:37:17;;;;;;;26.92;17.30;;;23.40;38.00;;;;;;5020061;28;20058;-74
2022/03/25 11:39:43;;;;;;;24.92;16.13;;;23.90;37.30;;;;;;4968776;28;206888;-74
2022/03/25 11:42:38;;;;;;;26.70;15.55;;;24.10;37.70;;;;;;5017624;28;20054;-74
2022/03/25 11:45:22;;;;;;;26.25;15.13;;;24.20;36.10;;;;;;4987334;28;41052;-74
2022/03/25 11:48:04;;;;;;;26.00;14.23;;;24.20;35.10;;;;;;5005801;28;20377;-74
2022/03/25 11:50:30;;;;;;;24.98;12.25;;;24.40;35.50;;;;;;4969927;28;71610;-74
2022/03/25 11:52:57;;;;;;;20.13;11.82;;;23.70;35.70;;;;;;5008998;28;20069;-73
2022/03/25 11:55:23;;;;;;;22.50;11.65;;;24.00;35.00;;;;;;4983426;28;255252;-74
2022/03/25 11:57:50;;;;;;;18.88;11.15;;;24.50;35.50;;;;;;5014731;28;20050;-73
2022/03/25 12:00:28;;;;;;;21.27;12.25;;;24.70;34.10;;;;;;4964839;28;261049;-74
2022/03/25 12:03:05;;;;;;;22.85;10.77;;;24.80;32.70;;;;;;4996956;28;20060;-74
2022/03/25 12:05:35;;;;;;;20.52;12.10;;;24.90;34.10;;;;;;4944697;28;208674;-73
2022/03/25 12:08:23;;;;;;;21.77;12.48;;;25.00;34.10;;;;;;4997827;28;20053;-74
2022/03/25 12:10:51;;;;;;;26.42;12.25;;;25.30;34.20;;;;;;4958331;28;20503;-74
2022/03/25 12:13:21;;;;;;;22.05;12.95;;;25.60;34.40;;;;;;4994782;28;20664;-73
2022/03/25 12:15:48;;;;;;;;;;;25.30;33.90;;;;;;4975809;28;270031;-74
2022/03/25 12:18:46;;;;;;;21.55;12.95;;;24.80;32.70;;;;;;5006285;28;20398;-73
2022/03/25 12:21:25;;;;;;;25.35;13.80;;;24.70;33.00;;;;;;4979627;28;20041;-73
2022/03/25 12:23:59;;;;;;;22.35;14.15;;;25.20;34.20;;;;;;4987661;28;264362;-73
2022/03/25 12:26:35;;;;;;;24.08;14.32;;;25.30;33.40;;;;;;4986884;28;20298;-74
2022/03/25 12:29:02;;;;;;;24.60;12.43;;;25.20;33.90;;;;;;4991767;28;244795;-72
2022/03/25 12:31:29;;;;;;;18.10;11.65;;;25.20;33.50;;;;;;5011272;28;20434;-73
2022/03/25 12:33:56;;;;;;;24.10;14.65;;;25.60;33.60;;;;;;4989159;28;260059;-72